Indianapolis, Indiana
Traffic Map
Current Weather Conditions
Indianapolis, Indiana
Scattered Clouds
Scattered Clouds
52°
Feels Like: 52°
Wind Chill: 52° Ceiling: Unl
Heat Index: 52° Visibility: 10mi
Dew Point: 48° Wind: 7mph
Humidity: 86% Direction: 230° (SW)
Pressure: 30.02in Gusts: 0mph
Raw Report DataKIND 250354Z 23006KT 10SM SCT090 11/09 A3002 RMK AO2 SLP165 T01110089
Traffic Incident Summary
Active as of:
Severity:
Category:
InformationThere was an issue retrieving the traffic information for this location. Please try a different location or try again shortly.
Advertisements
Track Severe Weather on mobile